Time,TemperatureF,DewpointF,PressureIn,WindDirection,WindDirectionDegrees,WindSpeedMPH,WindSpeedGustMPH,Humidity,HourlyPrecipIn,Conditions,Clouds,dailyrainin,SolarRadiationWatts/m^2,SoftwareType,DateUTC
2015-09-01 00:02:00,80.9,76.7,30.02,WNW,294,0.0,0.0,87,0.00,,BKN027,0.00,0.00,VWS V14.00,2015-09-01 04:02:00,
2015-09-01 00:07:00,80.9,76.7,30.02,WNW,294,0.0,0.0,87,0.00,,BKN027,0.00,0.00,VWS V14.00,2015-09-01 04:07:00,
2015-09-01 00:12:00,80.7,76.5,30.02,WNW,294,0.0,0.0,87,0.00,,BKN027,0.00,0.00,VWS V14.00,2015-09-01 04:12:00,
2015-09-01 00:17:00,80.7,76.5,30.02,WNW,294,0.0,0.0,87,0.00,,BKN027,0.00,0.00,VWS V14.00,2015-09-01 04:17:00,
2015-09-01 00:22:00,80.5,76.3,30.01,WNW,294,0.0,0.0,87,0.00,,BKN027,0.00,0.00,VWS V14.00,2015-09-01 04:22:00,
2015-09-01 00:27:00,80.3,76.1,30.02,WNW,294,0.0,0.0,87,0.00,,BKN027,0.00,0.00,VWS V14.00,2015-09-01 04:27:00,
2015-09-01 00:32:00,80.2,76.3,30.01,WNW,294,0.0,0.0,88,0.00,,BKN027,0.00,0.00,VWS V14.00,2015-09-01 04:32:00,
2015-09-01 00:37:00,80.2,76.3,30.01,WNW,294,0.0,0.0,88,0.00,,BKN027,0.00,0.00,VWS V14.00,2015-09-01 04:37:00,
2015-09-01 00:42:00,80.1,76.2,30.01,WNW,294,0.0,0.0,88,0.00,,BKN027,0.00,0.00,VWS V14.00,2015-09-01 04:42:00,
2015-09-01 00:47:00,80.1,76.6,30.01,WNW,294,0.0,0.0,89,0.00,,BKN027,0.00,0.00,VWS V14.00,2015-09-01 04:47:00,
2015-09-01 00:52:00,80.0,76.5,30.01,WNW,294,0.0,0.0,89,0.00,,BKN027,0.00,0.00,VWS V14.00,2015-09-01 04:52:00,
2015-09-01 00:57:00,79.9,76.4,30.01,WNW,294,0.0,0.0,89,0.00,,BKN027,0.00,0.00,VWS V14.00,2015-09-01 04:57:00,
2015-09-01 01:02:00,79.8,75.9,30.00,WNW,294,0.0,0.0,88,0.00,,BKN027,0.00,0.00,VWS V14.00,2015-09-01 05:02:00,
2015-09-01 01:07:00,79.6,75.7,30.00,WNW,294,0.0,0.0,88,0.00,,BKN027,0.00,0.00,VWS V14.00,2015-09-01 05:07:00,
2015-09-01 01:12:00,79.6,76.1,30.00,WNW,294,0.0,0.0,89,0.00,,BKN027,0.00,0.00,VWS V14.00,2015-09-01 05:12:00,
2015-09-01 01:17:00,79.7,76.2,30.00,WNW,294,0.0,0.0,89,0.00,,BKN027,0.00,0.00,VWS V14.00,2015-09-01 05:17:00,
2015-09-01 01:22:00,79.6,75.7,30.00,WNW,294,0.0,0.0,88,0.00,,BKN027,0.00,0.00,VWS V14.00,2015-09-01 05:22:00,
2015-09-01 01:27:00,79.5,75.6,30.00,WNW,294,0.0,0.0,88,0.00,,BKN027,0.00,0.00,VWS V14.00,2015-09-01 05:27:00,
2015-09-01 01:32:00,79.6,76.1,30.00,WNW,294,0.0,0.0,89,0.00,,BKN027,0.00,0.00,VWS V14.00,2015-09-01 05:32:00,
2015-09-01 01:37:00,79.5,76.0,30.00,WNW,294,0.0,0.0,89,0.00,,BKN027,0.00,0.00,VWS V14.00,2015-09-01 05:37:00,
2015-09-01 01:42:00,79.4,75.9,29.99,WNW,294,0.0,0.0,89,0.00,,BKN027,0.00,0.00,VWS V14.00,2015-09-01 05:42:00,
2015-09-01 01:47:00,79.3,75.8,29.99,WNW,294,0.0,0.0,89,0.00,,BKN027,0.00,0.00,VWS V14.00,2015-09-01 05:47:00,
2015-09-01 01:52:00,79.2,76.0,29.99,WNW,294,0.0,0.0,90,0.00,,BKN027,0.00,0.00,VWS V14.00,2015-09-01 05:52:00,
2015-09-01 01:57:00,79.0,75.5,29.99,WNW,294,0.0,0.0,89,0.00,,BKN027,0.00,0.00,VWS V14.00,2015-09-01 05:57:00,
2015-09-01 02:02:00,78.8,75.3,29.99,WNW,294,0.0,0.0,89,0.00,,BKN027,0.00,0.00,VWS V14.00,2015-09-01 06:02:00,
2015-09-01 02:07:00,78.7,75.2,29.99,WNW,294,0.0,0.0,89,0.00,,BKN027,0.00,0.00,VWS V14.00,2015-09-01 06:07:00,
2015-09-01 02:12:00,78.8,75.6,29.99,WNW,294,0.0,0.0,90,0.00,,BKN027,0.00,0.00,VWS V14.00,2015-09-01 06:12:00,
2015-09-01 02:17:00,78.9,75.7,29.99,WNW,294,0.0,0.0,90,0.00,,BKN027,0.00,0.00,VWS V14.00,2015-09-01 06:17:00,
2015-09-01 02:22:00,78.8,75.6,29.99,WNW,294,0.0,0.0,90,0.00,,BKN027,0.00,0.00,VWS V14.00,2015-09-01 06:22:00,
2015-09-01 02:27:00,78.8,75.6,29.99,WNW,294,0.0,0.0,90,0.00,,BKN027,0.00,0.00,VWS V14.00,2015-09-01 06:27:00,
2015-09-01 02:32:00,78.7,75.5,29.98,WNW,294,0.0,0.0,90,0.00,,BKN027,0.00,0.00,VWS V14.00,2015-09-01 06:32:00,
2015-09-01 02:37:00,78.7,75.5,29.98,WNW,294,0.0,0.0,90,0.00,,BKN027,0.00,0.00,VWS V14.00,2015-09-01 06:37:00,
2015-09-01 02:42:00,78.7,75.5,29.98,WNW,294,0.0,0.0,90,0.00,,BKN027,0.00,0.00,VWS V14.00,2015-09-01 06:42:00,
2015-09-01 02:47:00,78.7,75.5,29.97,WNW,294,0.0,0.0,90,0.00,,BKN027,0.00,0.00,VWS V14.00,2015-09-01 06:47:00,
2015-09-01 02:52:00,78.7,75.5,29.97,WNW,294,0.0,0.0,90,0.00,,BKN027,0.00,0.00,VWS V14.00,2015-09-01 06:52:00,
2015-09-01 02:57:00,78.7,75.5,29.97,WNW,294,0.0,0.0,90,0.00,,BKN027,0.00,0.00,VWS V14.00,2015-09-01 06:57:00,
2015-09-01 03:02:00,78.6,75.1,29.97,WNW,294,0.0,0.0,89,0.00,,BKN027,0.00,0.00,VWS V14.00,2015-09-01 07:02:00,
2015-09-01 03:07:00,78.7,75.2,29.97,WNW,294,0.0,0.0,89,0.00,,BKN027,0.00,0.00,VWS V14.00,2015-09-01 07:07:00,
2015-09-01 03:12:00,78.7,75.2,29.97,WNW,294,0.0,0.0,89,0.00,,BKN027,0.00,0.00,VWS V14.00,2015-09-01 07:12:00,
2015-09-01 03:17:00,78.9,75.7,29.96,WNW,294,0.0,0.0,90,0.00,,BKN027,0.00,0.00,VWS V14.00,2015-09-01 07:17:00,
2015-09-01 03:22:00,79.0,75.8,29.96,WNW,294,0.0,0.0,90,0.00,,BKN027,0.00,0.00,VWS V14.00,2015-09-01 07:22:00,
2015-09-01 03:27:00,78.9,75.4,29.96,WNW,294,0.0,0.0,89,0.00,,BKN027,0.00,0.00,VWS V14.00,2015-09-01 07:27:00,
2015-09-01 03:32:00,79.0,75.5,29.96,WNW,294,0.0,0.0,89,0.00,,BKN027,0.00,0.00,VWS V14.00,2015-09-01 07:32:00,
2015-09-01 03:37:00,78.9,75.4,29.96,WNW,294,0.0,0.0,89,0.00,,BKN027,0.00,0.00,VWS V14.00,2015-09-01 07:37:00,
2015-09-01 03:42:00,78.7,75.2,29.97,WNW,294,0.0,0.0,89,0.00,,BKN027,0.00,0.00,VWS V14.00,2015-09-01 07:42:00,
2015-09-01 03:47:00,78.6,75.1,29.96,WNW,294,0.0,0.0,89,0.00,,BKN027,0.00,0.00,VWS V14.00,2015-09-01 07:47:00,
2015-09-01 03:52:00,78.5,75.3,29.96,WNW,294,0.0,0.0,90,0.00,,BKN027,0.00,0.00,VWS V14.00,2015-09-01 07:52:00,
2015-09-01 03:57:00,78.4,75.2,29.96,WNW,294,0.0,0.0,90,0.00,,BKN027,0.00,0.00,VWS V14.00,2015-09-01 07:57:00,
2015-09-01 04:02:00,78.3,75.1,29.96,WNW,294,0.0,0.0,90,0.00,,BKN027,0.00,0.00,VWS V14.00,2015-09-01 08:02:00,
2015-09-01 04:07:00,78.5,75.7,29.95,WNW,294,0.0,0.0,91,0.00,,BKN027,0.00,0.00,VWS V14.00,2015-09-01 08:07:00,
2015-09-01 04:12:00,78.5,75.7,29.95,WNW,294,0.0,0.0,91,0.00,,BKN027,0.00,0.00,VWS V14.00,2015-09-01 08:12:00,
2015-09-01 04:17:00,78.5,75.7,29.95,WNW,294,0.0,0.0,91,0.00,,BKN027,0.00,0.00,VWS V14.00,2015-09-01 08:17:00,
2015-09-01 04:22:00,78.3,75.5,29.95,WNW,294,0.0,0.0,91,0.00,,BKN027,0.00,0.00,VWS V14.00,2015-09-01 08:22:00,
2015-09-01 04:27:00,78.3,75.5,29.95,WNW,294,0.0,0.0,91,0.00,,BKN027,0.00,0.00,VWS V14.00,2015-09-01 08:27:00,
2015-09-01 04:32:00,78.2,75.4,29.95,WNW,294,0.0,0.0,91,0.00,,BKN027,0.00,0.00,VWS V14.00,2015-09-01 08:32:00,
2015-09-01 04:37:00,78.2,75.4,29.95,WNW,294,0.0,0.0,91,0.00,,BKN027,0.00,0.00,VWS V14.00,2015-09-01 08:37:00,
2015-09-01 04:42:00,78.3,75.5,29.95,WNW,294,0.0,0.0,91,0.00,,BKN027,0.00,0.00,VWS V14.00,2015-09-01 08:42:00,
2015-09-01 04:47:00,78.3,75.5,29.95,WNW,294,0.0,0.0,91,0.00,,BKN027,0.00,0.00,VWS V14.00,2015-09-01 08:47:00,
2015-09-01 04:52:00,78.2,75.4,29.95,WNW,294,0.0,0.0,91,0.00,,BKN027,0.00,0.00,VWS V14.00,2015-09-01 08:52:00,
2015-09-01 04:57:00,78.2,75.0,29.96,WNW,294,0.0,0.0,90,0.00,,BKN027,0.00,0.00,VWS V14.00,2015-09-01 08:57:00,
2015-09-01 05:02:00,78.4,75.2,29.96,WNW,294,0.0,0.0,90,0.00,,BKN027,0.00,0.00,VWS V14.00,2015-09-01 09:02:00,
2015-09-01 05:07:00,78.5,75.3,29.96,WNW,294,0.0,0.0,90,0.00,,BKN027,0.00,0.00,VWS V14.00,2015-09-01 09:07:00,
2015-09-01 05:12:00,78.6,75.4,29.96,WNW,294,0.0,0.0,90,0.00,,BKN027,0.00,0.00,VWS V14.00,2015-09-01 09:12:00,
2015-09-01 05:17:00,78.5,75.3,29.96,WNW,294,0.0,0.0,90,0.00,,BKN027,0.00,0.00,VWS V14.00,2015-09-01 09:17:00,
2015-09-01 05:22:00,78.3,75.1,29.97,WNW,294,0.0,0.0,90,0.00,,BKN027,0.00,0.00,VWS V14.00,2015-09-01 09:22:00,
2015-09-01 05:27:00,78.1,74.9,29.97,WNW,294,0.0,0.0,90,0.00,,BKN027,0.00,0.00,VWS V14.00,2015-09-01 09:27:00,
2015-09-01 05:32:00,78.0,74.8,29.97,WNW,294,0.0,0.0,90,0.00,,BKN027,0.00,0.00,VWS V14.00,2015-09-01 09:32:00,
2015-09-01 05:37:00,77.9,74.7,29.97,WNW,294,0.0,0.0,90,0.00,,BKN027,0.00,0.00,VWS V14.00,2015-09-01 09:37:00,
2015-09-01 05:42:00,77.8,74.6,29.97,WNW,294,0.0,0.0,90,0.00,,BKN027,0.00,0.00,VWS V14.00,2015-09-01 09:42:00,
2015-09-01 05:47:00,77.6,74.8,29.98,WNW,294,0.0,0.0,91,0.00,,BKN027,0.00,0.00,VWS V14.00,2015-09-01 09:47:00,
2015-09-01 05:52:00,77.7,75.2,29.98,WNW,294,0.0,0.0,92,0.00,,BKN027,0.00,0.00,VWS V14.00,2015-09-01 09:52:00,
2015-09-01 05:57:00,77.8,75.3,29.98,WNW,294,0.0,0.0,92,0.00,,BKN027,0.00,0.00,VWS V14.00,2015-09-01 09:57:00,
2015-09-01 06:02:00,77.8,75.3,29.98,WNW,294,0.0,0.0,92,0.00,,BKN027,0.00,0.00,VWS V14.00,2015-09-01 10:02:00,
2015-09-01 06:07:00,77.8,75.3,29.98,WNW,294,0.0,0.0,92,0.00,,BKN027,0.00,0.00,VWS V14.00,2015-09-01 10:07:00,
2015-09-01 06:12:00,77.7,75.2,29.98,WNW,294,0.0,0.0,92,0.00,,BKN027,0.00,0.00,VWS V14.00,2015-09-01 10:12:00,
2015-09-01 06:17:00,77.7,75.2,29.98,WNW,294,0.0,0.0,92,0.00,,BKN027,0.00,0.00,VWS V14.00,2015-09-01 10:17:00,
2015-09-01 06:22:00,77.7,75.2,29.99,WNW,294,0.0,0.0,92,0.00,,BKN027,0.00,0.00,VWS V14.00,2015-09-01 10:22:00,
2015-09-01 06:27:00,77.6,75.1,29.99,WNW,294,0.0,0.0,92,0.00,,BKN027,0.00,0.00,VWS V14.00,2015-09-01 10:27:00,
2015-09-01 06:32:00,77.7,75.5,29.99,WNW,294,0.0,0.0,93,0.00,,BKN027,0.00,0.00,VWS V14.00,2015-09-01 10:32:00,
2015-09-01 06:37:00,77.8,75.6,29.99,WNW,294,0.0,0.0,93,0.00,,BKN027,0.00,0.00,VWS V14.00,2015-09-01 10:37:00,
2015-09-01 06:42:00,77.6,75.4,30.00,WNW,294,1.0,1.0,93,0.00,,BKN027,0.00,0.00,VWS V14.00,2015-09-01 10:42:00,
2015-09-01 06:47:00,77.6,75.4,30.00,WNW,294,1.0,1.0,93,0.00,,BKN027,0.00,0.00,VWS V14.00,2015-09-01 10:47:00,
2015-09-01 06:52:00,77.7,75.5,30.00,WNW,294,0.0,1.0,93,0.00,,BKN027,0.00,0.00,VWS V14.00,2015-09-01 10:52:00,
2015-09-01 06:57:00,77.7,75.5,30.00,WNW,294,0.0,0.0,93,0.00,,BKN027,0.00,0.00,VWS V14.00,2015-09-01 10:57:00,
2015-09-01 07:02:00,77.6,75.4,30.00,WNW,294,0.0,0.0,93,0.00,,BKN027,0.00,0.00,VWS V14.00,2015-09-01 11:02:00,
2015-09-01 07:07:00,77.7,75.5,30.00,WNW,294,1.0,1.0,93,0.00,,BKN027,0.00,0.00,VWS V14.00,2015-09-01 11:07:00,
2015-09-01 07:12:00,77.8,75.6,30.01,WNW,294,0.0,0.0,93,0.00,,BKN027,0.00,5.00,VWS V14.00,2015-09-01 11:12:00,
2015-09-01 07:17:00,77.8,75.6,30.01,WNW,294,0.0,0.0,93,0.00,,BKN027,0.00,7.00,VWS V14.00,2015-09-01 11:17:00,
2015-09-01 07:22:00,77.7,75.5,30.01,WNW,294,0.0,0.0,93,0.00,,BKN027,0.00,9.00,VWS V14.00,2015-09-01 11:22:00,
2015-09-01 07:27:00,77.8,75.9,30.01,WNW,294,0.0,0.0,94,0.00,,BKN027,0.00,11.00,VWS V14.00,2015-09-01 11:27:00,
2015-09-01 07:32:00,77.9,76.0,30.01,WNW,294,0.0,0.0,94,0.00,,FEW034,0.00,19.00,VWS V14.00,2015-09-01 11:32:00,